• Join FlightAware (Why Join?)
  • Login
  • US Flag 
10:27PM EDT


 

Airport Tracker/Info


-or-


 

Live Flight TrackerFlight Track Log ✈ SWA1775 ✈ 06-May-2013 ✈ KBWI - KMDW

Flight Track Log - Related Links

Times and Time Zones

All times are in EDT time to prevent confusion due to time zone crossing. See the SWA1775 flight status page for this flight to view local times or setup timezone preferences in your user account.

Time Position Orientation Groundspeed Altitude Reporting Facility
EDT Latitude Longitude Course Direction KTS MPH feet Rate Location/Type
10:03PM 39.1333 -76.6667 288° West 197 227 1,800  Level Potomac TRACON
10:04PM 39.1500 -76.7333 288° West 248 285 3,800 2,760 Climbing Potomac TRACON
10:06PM 39.2003 -76.8958 292° West 312 359 9,100 3,060 Climbing Washington Center
10:07PM 39.2114 -77.0058 277° West 312 359 12,200 2,520 Climbing Washington Center
10:08PM 39.2058 -77.1372 267° West 352 405 14,300 2,340 Climbing Washington Center
10:09PM 39.1378 -77.2319 227° Southwest 331 381 17,000 1,800 Climbing Washington Center
10:10PM 39.1089 -77.3625 254° West 357 411 17,900 1,860 Climbing Washington Center
10:11PM 39.0858 -77.4956 257° West 379 436 20,700 2,160 Climbing Washington Center
10:13PM 39.0375 -77.7775 258° West 437 503 24,500 1,860 Climbing Washington Center
10:14PM 39.0117 -77.9317 258° West 442 509 26,300 1,620 Climbing Washington Center
10:15PM 38.9833 -78.0939 257° West 449 517 27,800 1,680 Climbing Washington Center
10:17PM 38.9678 -78.4189 267° West 466 536 31,400 1,800 Climbing Washington Center
10:18PM 38.9722 -78.5819 272° West 466 536 33,300 1,260 Climbing Washington Center
10:19PM 38.9783 -78.7478 273° West 460 529 34,000 300 Climbing Washington Center
10:20PM 38.9822 -78.9108 272° West 460 529 34,000  Level Washington Center
10:21PM 38.9858 -79.0767 272° West 465 535 34,000 120 Level Washington Center
10:22PM 38.9914 -79.2425 273° West 465 535 34,300 780 Climbing Washington Center
10:23PM 38.9947 -79.4083 272° West 465 535 35,600 840 Climbing Washington Center
10:24PM 38.9975 -79.5742 271° West 460 529 36,000 180 Climbing Washington Center
10:25PM 39.0022 -79.7481 272° West 477 549 36,000  Level Washington Center
10:26PM 39.0039 -79.9350 271° West 477 549 36,000  Level Washington Center
10:27PM 39.0058 -80.1036 271° West 477 549 36,000  Level Washington Center
10:28PM 39.0061 -80.2289 270° West 477 549 36,000  Level Indianapolis Center
10:29PM 39.0086 -80.4003 271° West 480 552 36,000  Level Indianapolis Center
10:31PM 39.0128 -80.7428 271° West 481 554 36,000  Level Indianapolis Center
10:32PM 39.0514 -80.9078 287° West 493 567 36,000  Level Indianapolis Center
10:33PM 39.1236 -81.0603 301° West 501 577 36,000  Level Indianapolis Center
10:34PM 39.2106 -81.2419 302° West 501 577 36,000  Level Indianapolis Center
10:35PM 39.2811 -81.3914 301° West 494 568 36,000  Level Indianapolis Center
10:36PM 39.3519 -81.5403 302° West 492 566 36,000  Level Indianapolis Center
10:37PM 39.4231 -81.6917 301° West 493 567 36,000  Level Indianapolis Center
10:38PM 39.4950 -81.8439 302° West 496 571 36,000  Level Indianapolis Center
10:39PM 39.5669 -81.9964 302° West 497 572 36,000  Level Indianapolis Center
10:41PM 39.7133 -82.3161 301° West 499 574 36,000  Level Indianapolis Center
10:42PM 39.7847 -82.4717 301° West 499 574 36,000  Level Indianapolis Center
10:43PM 39.8561 -82.6236 302° West 492 566 36,000  Level Indianapolis Center
10:44PM 39.9256 -82.7783 300° West 493 567 36,000  Level Indianapolis Center
10:45PM 39.9939 -82.9294 301° West 485 558 36,000  Level Indianapolis Center
10:47PM 40.1294 -83.2306 301° West 481 554 36,000  Level Indianapolis Center
10:48PM 40.2069 -83.4042 300° West 477 549 36,000 -420 Level Indianapolis Center
10:50PM 40.3128 -83.6417 300° West 477 549 35,000 -780 Descending Chicago Center
10:50PM 40.3389 -83.7025 299° West 473 544 34,500 -1,320 Descending Indianapolis Center
10:51PM 40.4036 -83.8486 300° West 463 533 33,100 -1,260 Descending Indianapolis Center
10:52PM 40.4681 -83.9944 300° West 461 531 32,000 -900 Descending Indianapolis Center
10:53PM 40.5339 -84.1444 300° West 470 541 31,300 -840 Descending Indianapolis Center
10:54PM 40.5986 -84.2950 300° West 471 542 30,300 -960 Descending Indianapolis Center
10:55PM 40.6353 -84.3761 301° West 469 540 29,800 -900 Descending Chicago Center
10:56PM 40.6972 -84.5239 299° West 465 535 28,900 -900 Descending Chicago Center
10:57PM 40.7603 -84.6717 299° West 464 534 28,000 -480 Descending Chicago Center
10:58PM 40.8142 -84.8244 295° West 461 531 28,000  Level Chicago Center
10:59PM 40.8631 -84.9839 292° West 466 536 28,000  Level Chicago Center
11:00PM 40.9131 -85.1453 292° West 471 542 28,000  Level Chicago Center
11:01PM 40.9633 -85.3081 292° West 475 547 28,000  Level Chicago Center
11:02PM 41.0122 -85.4678 292° West 471 542 28,000  Level Chicago Center
11:03PM 41.0611 -85.6278 292° West 467 537 28,000  Level Chicago Center
11:04PM 41.1200 -85.8203 292° West 468 539 28,000 -540 Level Chicago Center
11:05PM 41.1683 -85.9794 292° West 464 534 26,900 -1,920 Descending Chicago Center
11:06PM 41.2131 -86.1269 292° West 433 498 24,200 -2,760 Descending Chicago Center
11:07PM 41.2558 -86.2769 291° West 430 495 21,300 -2,820 Descending Chicago Center
11:08PM 41.2986 -86.4219 291° West 424 488 18,500 -2,760 Descending Chicago Center
11:09PM 41.3394 -86.5567 292° West 400 460 15,800 -2,700 Descending Chicago Center
11:10PM 41.3781 -86.6869 292° West 379 436 13,100 -2,520 Descending Chicago Center
11:11PM 41.4139 -86.8058 292° West 367 422 10,700 -1,560 Descending Chicago Center
11:12PM 41.4458 -86.9164 291° West 326 375 10,000 -1,380 Descending Chicago Center
11:13PM 41.4800 -87.0378 291° West 297 342 8,000 -1,920 Descending Chicago Center
11:14PM 41.5097 -87.1383 292° West 293 337 6,200 -1,440 Descending Chicago Center
11:15PM 41.5167 -87.2167 277° West 283 326 5,600 -960 Descending Chicago TRACON
11:16PM 41.5333 -87.3167 283° West 278 320 4,600 -840 Descending Chicago TRACON
11:17PM 41.5667 -87.4167 294° West 280 322 4,000 -480 Descending Chicago TRACON
11:17PM 41.5647 -87.4381 263° West 277 319 4,000  Level Chicago Center
11:18PM 41.5828 -87.5400 283° West 280 322 4,000  Level Chicago Center
11:19PM 41.6011 -87.6372 284° West 279 321 4,000 -360 Level Chicago Center
11:20PM 41.6158 -87.7214 283° West 257 296 3,300 -960 Descending Chicago Center
11:21PM 41.6333 -87.7833 291° West 239 275 2,500 -480 Descending Chicago TRACON
11:22PM 41.6500 -87.8667 285° West 198 228 2,500  Level Chicago TRACON
11:22PM 41.6478 -87.8872 262° West 216 249 2,500  Level Chicago Center
11:23PM 41.6922 -87.8694 17° North 198 228 2,500  Level Chicago Center
11:24PM 41.7167 -87.8500 31° Northeast 180 207 2,500 -600 Level Chicago TRACON
11:25PM 41.7500 -87.8000 48° Northeast 128 147 1,600 -780 Descending Chicago TRACON
11:26PM 41.7667 -87.7667 56° Northeast 131 151 900 -720 Descending Chicago TRACON
11:28PM 41.7833 -87.7500 340° North  Level FlightAware Approximate